Time;durP1;ratioP1;P1;durP2;ratioP2;P2;SDS_P1;SDS_P2;PMS_P1;PMS_P2;Temp;Humidity;BMP_temperature;BMP_pressure;BME280_temperature;BME280_humidity;BME280_pressure;Samples;Min_cycle;Max_cycle;Signal;HPM_P1;HPM_P2
2023/08/05 00:00:12;;;;;;;17.13;9.68;;;;;;;24.79;100.00;100254.81;4974607;28;20047;-77
2023/08/05 00:02:37;;;;;;;21.40;10.55;;;;;;;24.81;100.00;100255.47;4974055;28;20039;-78
2023/08/05 00:05:03;;;;;;;18.33;10.57;;;;;;;24.76;100.00;100253.38;4974014;28;20109;-80
2023/08/05 00:07:30;;;;;;;14.82;10.30;;;;;;;24.77;100.00;100248.69;4973745;28;20115;-77
2023/08/05 00:09:55;;;;;;;20.20;10.68;;;;;;;24.76;100.00;100258.88;4974047;28;20038;-78
2023/08/05 00:12:21;;;;;;;16.65;9.57;;;;;;;24.76;100.00;100253.38;4973798;28;20023;-77
2023/08/05 00:14:47;;;;;;;17.70;11.35;;;;;;;24.75;100.00;100257.19;4974286;28;20034;-76
2023/08/05 00:17:12;;;;;;;22.98;10.57;;;;;;;24.74;100.00;100252.75;4973760;28;20114;-76
2023/08/05 00:19:38;;;;;;;13.65;10.25;;;;;;;24.76;100.00;100269.88;4973993;28;20042;-77
2023/08/05 00:22:03;;;;;;;21.17;10.57;;;;;;;24.76;100.00;100258.88;4973967;28;20046;-77
2023/08/05 00:24:29;;;;;;;23.13;11.20;;;;;;;24.79;100.00;100266.69;4974097;28;20026;-76
2023/08/05 00:26:54;;;;;;;22.02;11.00;;;;;;;24.74;100.00;100257.41;4974223;28;20038;-78
2023/08/05 00:29:20;;;;;;;17.10;10.75;;;;;;;24.72;100.00;100252.13;4973704;28;20035;-76
2023/08/05 00:31:45;;;;;;;18.90;10.95;;;;;;;24.79;100.00;100263.94;4973856;28;20037;-77
2023/08/05 00:34:11;;;;;;;23.38;10.55;;;;;;;24.81;100.00;100258.22;4973583;28;20053;-77
2023/08/05 00:36:36;;;;;;;15.60;11.32;;;;;;;24.84;100.00;100258.59;4973778;28;20027;-76
2023/08/05 00:39:01;;;;;;;16.42;11.02;;;;;;;24.82;100.00;100263.50;4973617;28;20735;-76
2023/08/05 00:41:27;;;;;;;25.65;10.43;;;;;;;24.81;100.00;100248.06;4973853;28;20490;-79
2023/08/05 00:43:52;;;;;;;16.30;10.65;;;;;;;24.79;100.00;100254.81;4973495;28;20027;-76
2023/08/05 00:46:22;;;;;;;16.10;10.52;;;;;;;24.76;100.00;100247.88;4973096;28;20031;-76
2023/08/05 00:48:49;;;;;;;17.33;10.15;;;;;;;24.77;100.00;100241.28;4971125;28;20126;-78
2023/08/05 00:51:15;;;;;;;22.70;11.18;;;;;;;24.79;100.00;100255.66;4973372;28;20109;-76
2023/08/05 00:53:41;;;;;;;12.43;10.15;;;;;;;24.72;100.00;100232.03;4972958;28;20518;-76
2023/08/05 00:56:07;;;;;;;24.13;11.13;;;;;;;24.79;100.00;100249.31;4988017;28;20050;-76
2023/08/05 00:58:33;;;;;;;17.60;9.60;;;;;;;24.82;100.00;100247.00;4972079;28;20035;-76
2023/08/05 01:00:59;;;;;;;15.57;11.15;;;;;;;24.81;100.00;100244.47;4972863;28;20046;-77
2023/08/05 01:03:24;;;;;;;16.83;10.00;;;;;;;24.79;100.00;100241.91;4974230;28;20019;-76
2023/08/05 01:05:52;;;;;;;24.13;11.27;;;;;;;24.80;100.00;100251.84;4974669;28;20471;-76
2023/08/05 01:08:21;;;;;;;13.75;9.48;;;;;;;24.86;100.00;100237.19;4974642;28;20027;-76
2023/08/05 01:10:47;;;;;;;35.08;9.93;;;;;;;24.92;100.00;100247.28;4975222;28;20035;-76
2023/08/05 01:13:13;;;;;;;18.35;10.77;;;;;;;24.89;100.00;100236.75;4973665;28;20034;-76
2023/08/05 01:15:38;;;;;;;14.95;10.13;;;;;;;24.86;100.00;100231.69;4973790;28;20031;-77
2023/08/05 01:18:06;;;;;;;23.05;11.13;;;;;;;24.89;100.00;100236.75;4972980;28;20030;-77
2023/08/05 01:20:45;;;;;;;24.23;10.13;;;;;;;24.89;100.00;100235.94;4972830;28;20029;-76
2023/08/05 01:23:20;;;;;;;21.10;9.73;;;;;;;24.92;100.00;100231.88;4973168;28;20118;-76
2023/08/05 01:25:46;;;;;;;17.05;11.35;;;;;;;24.93;100.00;100239.91;4972302;28;20117;-75
2023/08/05 01:28:14;;;;;;;19.30;10.85;;;;;;;24.97;100.00;100235.63;4973344;28;20494;-76
2023/08/05 01:30:41;;;;;;;20.80;12.10;;;;;;;24.94;100.00;100232.47;4972828;28;20054;-75
2023/08/05 01:33:07;;;;;;;22.35;10.13;;;;;;;24.98;100.00;100228.22;4972824;28;20042;-76
2023/08/05 01:35:33;;;;;;;21.42;10.23;;;;;;;24.96;100.00;100219.31;4971803;28;20035;-78
2023/08/05 01:37:58;;;;;;;18.73;10.27;;;;;;;25.02;100.00;100226.66;4972771;28;20407;-80
2023/08/05 01:40:28;;;;;;;18.08;10.57;;;;;;;24.96;100.00;100219.31;4973207;28;20035;-77
2023/08/05 01:42:56;;;;;;;13.88;10.25;;;;;;;25.01;100.00;100228.59;4972973;28;20019;-77
2023/08/05 01:45:21;;;;;;;20.63;9.65;;;;;;;24.85;100.00;100210.78;4972453;28;20038;-80
2023/08/05 01:47:47;;;;;;;16.38;10.23;;;;;;;24.92;100.00;100218.97;4972626;28;20027;-77
2023/08/05 01:50:12;;;;;;;17.58;10.27;;;;;;;24.98;100.00;100230.97;4972636;28;20038;-76
2023/08/05 01:52:37;;;;;;;28.90;10.73;;;;;;;24.95;100.00;100223.16;4972532;28;20042;-78
2023/08/05 01:55:03;;;;;;;19.90;9.40;;;;;;;24.95;100.00;100234.19;4972235;28;20046;-77
2023/08/05 01:57:29;;;;;;;15.70;9.82;;;;;;;24.95;100.00;100229.53;4972108;28;20027;-77
2023/08/05 01:59:54;;;;;;;17.80;10.02;;;;;;;24.96;100.00;100224.84;4969825;28;20426;-78
2023/08/05 02:02:20;;;;;;;18.30;10.55;;;;;;;25.01;100.00;100225.00;4972122;28;20174;-80
2023/08/05 02:04:45;;;;;;;24.80;10.32;;;;;;;25.01;100.00;100222.25;4972152;28;20027;-79
2023/08/05 02:07:12;;;;;;;13.35;9.35;;;;;;;25.03;100.00;100225.59;4972462;28;20038;-79
2023/08/05 02:09:37;;;;;;;18.48;9.98;;;;;;;24.93;100.00;100220.63;4972392;28;20049;-78
2023/08/05 02:12:03;;;;;;;23.52;11.27;;;;;;;24.95;100.00;100213.00;4972414;28;20026;-79
2023/08/05 02:14:28;;;;;;;18.75;10.05;;;;;;;24.90;100.00;100208.19;4971999;28;20541;-77
2023/08/05 02:16:53;;;;;;;17.30;10.85;;;;;;;24.89;100.00;100219.44;4971734;28;20027;-78
2023/08/05 02:19:19;;;;;;;18.65;9.38;;;;;;;24.89;100.00;100208.41;4971931;28;20089;-78
2023/08/05 02:21:44;;;;;;;26.98;9.40;;;;;;;24.87;100.00;100221.53;4971882;28;20067;-80
2023/08/05 02:24:10;;;;;;;20.77;10.40;;;;;;;24.88;100.00;100218.56;4972590;28;20150;-78
2023/08/05 02:26:38;;;;;;;21.25;10.68;;;;;;;24.89;100.00;100217.50;4971712;28;20038;-77
2023/08/05 02:29:04;;;;;;;20.00;8.73;;;;;;;24.86;100.00;100217.94;4971824;28;20035;-79
2023/08/05 02:31:29;;;;;;;16.17;10.50;;;;;;;24.83;100.00;100220.34;4971727;28;20046;-78
2023/08/05 02:33:55;;;;;;;17.50;9.70;;;;;;;24.81;100.00;100222.44;4971503;28;20066;-79
2023/08/05 02:36:20;;;;;;;17.23;9.38;;;;;;;24.85;100.00;100230.03;4971565;28;20034;-78
2023/08/05 02:38:46;;;;;;;29.70;10.63;;;;;;;24.87;100.00;100233.41;4971370;28;20031;-78
2023/08/05 02:41:11;;;;;;;16.02;8.73;;;;;;;24.84;100.00;100222.84;4972014;28;20102;-79
2023/08/05 02:43:36;;;;;;;30.50;10.35;;;;;;;24.82;100.00;100225.00;4971458;28;20033;-80
2023/08/05 02:46:02;;;;;;;16.08;9.57;;;;;;;24.84;100.00;100222.00;4971345;28;20027;-79
2023/08/05 02:48:28;;;;;;;19.75;10.18;;;;;;;24.76;100.00;100214.88;4971372;28;20050;-80
2023/08/05 02:50:54;;;;;;;23.23;11.23;;;;;;;24.83;100.00;100221.16;4971492;28;20027;-78
2023/08/05 02:53:20;;;;;;;14.25;10.45;;;;;;;24.85;100.00;100227.28;4971779;28;20113;-79
2023/08/05 02:55:46;;;;;;;18.75;8.77;;;;;;;24.81;100.00;100231.56;4971377;28;20494;-78
2023/08/05 02:58:14;;;;;;;18.55;10.85;;;;;;;24.80;100.00;100217.97;4972678;28;20031;-79
2023/08/05 03:00:40;;;;;;;23.17;9.73;;;;;;;24.87;100.00;100221.53;4972277;28;20078;-79
2023/08/05 03:03:08;;;;;;;21.20;9.23;;;;;;;24.75;100.00;100204.91;4971879;28;20058;-79
2023/08/05 03:05:34;;;;;;;28.90;9.68;;;;;;;24.79;100.00;100219.91;4975912;28;20462;-81
2023/08/05 03:07:59;;;;;;;19.17;9.40;;;;;;;24.85;100.00;100219.03;4974988;28;20031;-81
2023/08/05 03:10:25;;;;;;;17.98;8.57;;;;;;;24.81;100.00;100223.31;4991318;28;20037;-80
2023/08/05 03:12:50;;;;;;;14.57;9.38;;;;;;;24.83;100.00;100223.09;4993086;28;20031;-79
2023/08/05 03:15:16;;;;;;;14.20;8.68;;;;;;;24.84;100.00;100224.75;4986980;28;20038;-79
2023/08/05 03:17:41;;;;;;;29.40;10.15;;;;;;;24.79;100.00;100213.56;4977018;28;20035;-78
2023/08/05 03:20:22;;;;;;;24.60;9.38;;;;;;;24.82;100.00;100225.00;4973994;28;20022;-77
2023/08/05 03:22:48;;;;;;;15.07;9.30;;;;;;;24.79;100.00;100221.81;4974376;28;20041;-78
2023/08/05 03:25:13;;;;;;;16.65;8.85;;;;;;;24.79;100.00;100224.56;4973914;28;20453;-77
2023/08/05 03:27:38;;;;;;;20.30;9.35;;;;;;;24.74;100.00;100216.97;4972986;28;20106;-78
2023/08/05 03:30:04;;;;;;;15.50;9.23;;;;;;;24.69;100.00;100210.47;4971925;28;20026;-79
2023/08/05 03:32:30;;;;;;;19.75;9.40;;;;;;;24.73;100.00;100219.97;4972606;28;20031;-80
2023/08/05 03:34:55;;;;;;;27.63;10.85;;;;;;;24.72;100.00;100224.63;4970939;28;20027;-79
2023/08/05 03:37:21;;;;;;;22.13;10.95;;;;;;;24.77;100.00;100224.78;4970647;28;20039;-79
2023/08/05 03:39:47;;;;;;;19.45;9.80;;;;;;;24.78;100.00;100223.72;4970930;28;20434;-78
2023/08/05 03:42:13;;;;;;;30.42;10.85;;;;;;;24.78;100.00;100231.13;4970087;28;20039;-78
2023/08/05 03:44:38;;;;;;;24.33;11.13;;;;;;;24.78;100.00;100223.72;4970338;28;20031;-76
2023/08/05 03:47:04;;;;;;;19.33;8.60;;;;;;;24.79;100.00;100236.41;4970474;28;20590;-78
2023/08/05 03:49:29;;;;;;;17.65;8.95;;;;;;;24.78;100.00;100231.97;4970211;28;20403;-78
2023/08/05 03:51:54;;;;;;;28.83;11.57;;;;;;;24.79;100.00;100227.31;4970298;28;20031;-80
2023/08/05 03:54:20;;;;;;;13.50;9.48;;;;;;;24.83;100.00;100236.84;4970016;28;20027;-77
2023/08/05 03:56:45;;;;;;;21.25;9.68;;;;;;;24.80;100.00;100227.06;4970206;28;20026;-78
2023/08/05 03:59:11;;;;;;;25.23;9.65;;;;;;;24.83;100.00;100221.16;4970521;28;20039;-81
2023/08/05 04:01:37;;;;;;;21.77;10.25;;;;;;;24.89;100.00;100224.94;4970434;28;20050;-80
2023/08/05 04:04:03;;;;;;;23.35;9.90;;;;;;;24.83;100.00;100226.66;4969227;28;20479;-78
2023/08/05 04:06:28;;;;;;;23.67;10.10;;;;;;;24.90;100.00;100227.44;4970255;28;20031;-78
2023/08/05 04:08:54;;;;;;;21.33;10.35;;;;;;;24.89;100.00;100228.50;4970110;28;20027;-77
2023/08/05 04:11:20;;;;;;;25.90;8.70;;;;;;;24.83;100.00;100214.84;4970014;28;20039;-76
2023/08/05 04:13:47;;;;;;;22.88;9.02;;;;;;;24.86;100.00;100215.19;4970282;28;20022;-80
2023/08/05 04:16:14;;;;;;;30.17;11.15;;;;;;;24.92;100.00;100218.13;4967456;28;20501;-81
2023/08/05 04:18:42;;;;;;;17.65;9.18;;;;;;;24.94;100.00;100208.56;4970524;28;20038;-78
2023/08/05 04:21:10;;;;;;;24.73;9.98;;;;;;;25.00;100.00;100213.16;4970120;28;20027;-78
2023/08/05 04:23:35;;;;;;;33.80;10.45;;;;;;;24.96;100.00;100203.66;4969970;28;20034;-77
2023/08/05 04:26:03;;;;;;;17.45;10.13;;;;;;;24.98;100.00;100201.53;4970013;28;20035;-77
2023/08/05 04:28:28;;;;;;;21.10;8.63;;;;;;;24.96;100.00;100209.16;4969876;28;20019;-75
2023/08/05 04:30:54;;;;;;;15.60;7.95;;;;;;;24.94;100.00;100210.47;4970207;28;20031;-78
2023/08/05 04:33:19;;;;;;;14.05;8.30;;;;;;;25.04;100.00;100200.63;4970257;28;20495;-80
2023/08/05 04:35:47;;;;;;;16.23;8.77;;;;;;;25.09;100.00;100210.94;4971361;28;20427;-80
2023/08/05 04:38:14;;;;;;;13.38;7.95;;;;;;;25.09;100.00;100214.53;4972793;28;20635;-76
2023/08/05 04:40:39;;;;;;;28.17;8.32;;;;;;;25.09;100.00;100200.78;4969339;28;20517;-80
2023/08/05 04:43:04;;;;;;;24.20;8.32;;;;;;;25.18;100.00;100199.41;4954561;28;20035;-78
2023/08/05 04:45:30;;;;;;;27.48;7.43;;;;;;;25.16;100.00;100197.94;4973091;28;20089;-77
2023/08/05 04:47:55;;;;;;;21.25;7.97;;;;;;;25.16;100.00;100192.44;4973045;28;20031;-76
2023/08/05 04:50:21;;;;;;;26.08;9.90;;;;;;;25.18;100.00;100196.63;4972875;28;20035;-79
2023/08/05 04:52:47;;;;;;;19.20;7.45;;;;;;;25.27;100.00;100202.66;4972599;28;20026;-77
2023/08/05 04:55:15;;;;;;;10.55;6.80;;;;;;;25.22;100.00;100197.88;4972558;28;20321;-76
2023/08/05 04:57:40;;;;;;;21.73;7.38;;;;;;;25.32;100.00;100213.81;4972248;28;20059;-77
2023/08/05 05:00:07;;;;;;;18.98;7.68;;;;;;;25.38;100.00;100212.94;4972754;28;20051;-78
2023/08/05 05:02:32;;;;;;;24.38;7.43;;;;;;;25.44;100.00;100223.00;4972549;28;20058;-77
2023/08/05 05:04:58;;;;;;;27.30;7.18;;;;;;;25.47;100.00;100216.19;4973121;28;20106;-77
2023/08/05 05:07:23;;;;;;;17.35;6.93;;;;;;;25.53;100.00;100232.69;4972716;28;20031;-75
2023/08/05 05:09:49;;;;;;;17.42;7.95;;;;;;;25.58;100.00;100218.19;4970349;28;20034;-77
2023/08/05 05:12:14;;;;;;;17.30;7.00;;;;;;;25.67;100.00;100233.31;4972745;28;21016;-76
2023/08/05 05:14:46;;;;;;;24.15;7.47;;;;;;;25.72;100.00;100230.69;4972612;28;20038;-77
2023/08/05 05:17:16;;;;;;;14.30;6.40;;;;;;;25.72;100.00;100234.31;4971929;28;20054;-77
2023/08/05 05:19:42;;;;;;;15.82;6.20;;;;;;;25.74;100.00;100234.94;4972535;28;20499;-77
2023/08/05 05:22:08;;;;;;;18.48;6.85;;;;;;;25.74;100.00;100231.34;4971585;28;20038;-76
2023/08/05 05:24:34;;;;;;;25.05;6.55;;;;;;;25.76;100.00;100241.03;4972500;28;20035;-78
2023/08/05 05:26:59;;;;;;;23.02;7.40;;;;;;;25.78;100.00;100235.28;4972009;28;20030;-77
2023/08/05 05:29:24;;;;;;;19.92;6.65;;;;;;;25.76;100.00;100227.25;4972825;28;20026;-77
2023/08/05 05:31:50;;;;;;;19.67;7.43;;;;;;;25.78;100.00;100225.09;4972016;28;20078;-78
2023/08/05 05:34:15;;;;;;;21.58;6.85;;;;;;;25.86;100.00;100222.03;4971915;28;20049;-75
2023/08/05 05:36:41;;;;;;;19.10;6.97;;;;;;;25.88;100.00;100219.88;4971861;28;20023;-76
2023/08/05 05:39:06;;;;;;;41.55;7.05;;;;;;;25.80;100.00;100192.66;4971142;28;20038;-76
2023/08/05 05:41:32;;;;;;;15.02;6.28;;;;;;;25.96;100.00;100222.28;4972660;28;20038;-75
2023/08/05 05:43:58;;;;;;;13.00;6.28;;;;;;;26.01;100.00;100223.50;4972063;28;20027;-74
2023/08/05 05:46:25;;;;;;;15.38;6.22;;;;;;;26.04;100.00;100223.88;4971717;28;20041;-77
2023/08/05 05:48:50;;;;;;;13.20;6.57;;;;;;;26.11;100.00;100210.00;4971972;28;20031;-78
2023/08/05 05:51:16;;;;;;;23.13;7.35;;;;;;;26.11;100.00;100212.75;4972055;28;20039;-75
2023/08/05 05:53:42;;;;;;;17.77;7.25;;;;;;;26.17;100.00;100217.38;4972395;28;20489;-75
2023/08/05 05:56:08;;;;;;;22.77;6.07;;;;;;;26.22;100.00;100210.06;4973507;28;20057;-79
2023/08/05 05:58:35;;;;;;;22.77;6.45;;;;;;;26.16;100.00;100188.94;4972169;28;20026;-78
2023/08/05 06:01:01;;;;;;;24.15;6.30;;;;;;;26.35;100.00;100203.50;4972390;28;20436;-78
2023/08/05 06:03:27;;;;;;;14.73;5.75;;;;;;;26.34;100.00;100196.28;4971917;28;20121;-80
2023/08/05 06:05:53;;;;;;;24.67;5.65;;;;;;;26.33;100.00;100175.28;4971807;28;20518;-79
2023/08/05 06:08:19;;;;;;;32.00;6.60;;;;;;;26.47;100.00;100191.41;4972625;28;20031;-78
2023/08/05 06:10:45;;;;;;;12.95;5.82;;;;;;;26.42;97.58;100180.22;4972215;28;20588;-80
2023/08/05 06:13:10;;;;;;;24.42;5.68;;;;;;;26.45;98.08;100192.72;4986963;28;20034;-77
2023/08/05 06:15:40;;;;;;;16.02;5.95;;;;;;;26.42;98.22;100198.72;4971031;28;20031;-78
2023/08/05 06:18:09;;;;;;;25.70;7.00;;;;;;;26.50;99.96;100201.94;4969547;28;20035;-76
2023/08/05 06:20:35;;;;;;;14.07;6.57;;;;;;;26.55;100.00;100212.25;4970933;28;20038;-78
2023/08/05 06:23:01;;;;;;;17.15;6.57;;;;;;;26.60;99.89;100217.06;4971671;28;20042;-77
2023/08/05 06:25:27;;;;;;;19.02;6.78;;;;;;;26.61;100.00;100205.78;4971535;28;20391;-77
2023/08/05 06:27:53;;;;;;;27.35;7.32;;;;;;;26.64;100.00;100202.53;4971369;28;20065;-80
2023/08/05 06:30:18;;;;;;;17.55;5.72;;;;;;;26.69;99.08;100205.44;4970977;28;20299;-77
2023/08/05 06:32:44;;;;;;;18.00;6.22;;;;;;;26.71;97.49;100202.44;4977757;28;20034;-80
2023/08/05 06:35:09;;;;;;;17.83;6.68;;;;;;;26.71;98.26;100195.00;4989739;28;20133;-79
2023/08/05 06:37:35;;;;;;;19.60;5.88;;;;;;;26.74;97.64;100200.03;4990284;28;20398;-83
2023/08/05 06:40:00;;;;;;;16.65;5.90;;;;;;;26.80;96.04;100199.09;4979491;28;20133;-78
2023/08/05 06:42:26;;;;;;;21.80;6.28;;;;;;;26.73;96.49;100179.03;4971058;28;20042;-84
2023/08/05 06:44:52;;;;;;;26.63;6.45;;;;;;;26.77;95.46;100188.50;4972216;28;20034;-85
2023/08/05 06:47:18;;;;;;;22.30;5.97;;;;;;;26.86;94.84;100192.63;4971200;28;20031;-79
2023/08/05 06:49:43;;;;;;;14.55;5.40;;;;;;;26.86;93.58;100206.41;4970599;28;20033;-76
2023/08/05 06:52:09;;;;;;;15.20;5.28;;;;;;;26.76;91.42;100188.75;4971265;28;20027;-78
2023/08/05 06:54:34;;;;;;;23.63;5.57;;;;;;;26.67;93.71;100174.47;4969976;28;20085;-77
2023/08/05 06:57:00;;;;;;;27.50;6.63;;;;;;;26.83;94.25;100206.06;4970440;28;20178;-78
2023/08/05 06:59:26;;;;;;;14.48;5.68;;;;;;;26.84;94.00;100205.81;4969926;28;20469;-78
2023/08/05 07:01:53;;;;;;;21.50;5.07;;;;;;;26.75;92.40;100204.47;4970664;28;20482;-76
2023/08/05 07:04:19;;;;;;;23.15;6.90;;;;;;;26.82;92.71;100204.38;4970919;28;20110;-77
2023/08/05 07:06:44;;;;;;;13.30;5.45;;;;;;;26.81;92.37;100197.19;4971088;28;20117;-78
2023/08/05 07:09:10;;;;;;;21.25;5.75;;;;;;;26.77;92.28;100205.06;4971036;28;20447;-79
2023/08/05 07:11:36;;;;;;;22.13;6.40;;;;;;;26.84;93.31;100197.53;4971062;28;20057;-81
2023/08/05 07:14:01;;;;;;;28.85;6.50;;;;;;;26.98;92.58;100189.84;4970694;28;20479;-80
2023/08/05 07:16:27;;;;;;;16.40;5.15;;;;;;;27.03;92.01;100182.50;4970566;28;20034;-77
2023/08/05 07:18:54;;;;;;;13.18;5.30;;;;;;;27.03;90.31;100190.78;4970699;28;20055;-80
2023/08/05 07:21:19;;;;;;;13.27;5.15;;;;;;;27.00;88.55;100173.88;4971362;28;20388;-78
2023/08/05 07:23:45;;;;;;;19.95;6.22;;;;;;;27.11;88.97;100197.88;4971314;28;20081;-82
2023/08/05 07:26:10;;;;;;;12.48;4.82;;;;;;;27.17;90.29;100190.53;4971242;28;20031;-84
2023/08/05 07:28:36;;;;;;;15.73;5.60;;;;;;;27.22;89.19;100187.84;4971071;28;20046;-81
2023/08/05 07:31:10;;;;;;;14.50;4.60;;;;;;;27.17;88.01;100196.88;4971159;28;20465;-81
2023/08/05 07:33:36;;;;;;;20.10;5.55;;;;;;;27.19;89.02;100188.34;4971144;28;20044;-81
2023/08/05 07:36:12;;;;;;;16.30;7.13;;;;;;;27.10;88.03;100173.25;4971805;28;20081;-82
2023/08/05 07:38:40;;;;;;;22.65;4.97;;;;;;;27.15;87.80;100187.19;4971452;28;20114;-80
2023/08/05 07:41:08;;;;;;;29.15;6.70;;;;;;;27.10;89.60;100185.13;4972240;28;20031;-83
2023/08/05 07:43:36;;;;;;;17.35;5.07;;;;;;;27.10;89.62;100178.75;4970208;28;20031;-81
2023/08/05 07:46:05;;;;;;;19.35;6.10;;;;;;;27.19;88.83;100199.41;4987419;28;20072;-81
2023/08/05 07:48:35;;;;;;;20.15;5.45;;;;;;;27.22;88.23;100198.91;4973210;28;20513;-79
2023/08/05 07:51:02;;;;;;;11.35;4.38;;;;;;;27.21;87.81;100186.19;4971891;28;20110;-80
2023/08/05 07:53:29;;;;;;;12.88;5.28;;;;;;;27.32;87.54;100204.66;4975955;28;20035;-83
2023/08/05 07:55:56;;;;;;;22.52;6.85;;;;;;;27.17;87.06;100166.50;4989039;28;20034;-85
2023/08/05 07:58:21;;;;;;;11.20;4.63;;;;;;;27.36;86.40;100194.81;4995498;28;20491;-83
2023/08/05 08:00:47;;;;;;;15.70;5.32;;;;;;;27.34;84.93;100181.22;4993695;28;20043;-83
2023/08/05 08:03:12;;;;;;;18.95;6.07;;;;;;;27.23;84.30;100150.88;4979990;28;20096;-80
2023/08/05 08:05:38;;;;;;;14.57;4.72;;;;;;;27.53;83.85;100195.72;4977057;28;20030;-81
2023/08/05 08:08:03;;;;;;;19.15;5.25;;;;;;;27.39;83.84;100169.47;4981308;28;20113;-80
2023/08/05 08:10:29;;;;;;;22.88;5.35;;;;;;;27.51;84.59;100182.19;4976143;28;20102;-81
2023/08/05 08:12:54;;;;;;;13.48;4.85;;;;;;;27.46;82.78;100172.94;4975664;28;20034;-81
2023/08/05 08:15:20;;;;;;;27.38;5.53;;;;;;;27.66;81.69;100202.88;4974475;28;20054;-82
2023/08/05 08:17:46;;;;;;;20.77;5.65;;;;;;;27.60;80.87;100195.59;4974354;28;20031;-81
2023/08/05 08:20:12;;;;;;;14.20;5.60;;;;;;;27.73;81.48;100211.88;4974333;28;20076;-83
2023/08/05 08:22:37;;;;;;;27.38;7.75;;;;;;;27.76;79.97;100206.72;4973746;28;20053;-83
2023/08/05 08:25:03;;;;;;;26.65;5.15;;;;;;;27.76;79.31;100200.34;4974162;28;20401;-82
2023/08/05 08:27:28;;;;;;;25.65;5.35;;;;;;;27.81;79.45;100189.38;4973774;28;20613;-83
2023/08/05 08:29:54;;;;;;;17.75;4.40;;;;;;;27.91;78.28;100192.31;4973981;28;20023;-84
2023/08/05 08:32:19;;;;;;;16.00;5.22;;;;;;;27.84;77.69;100170.38;4973674;28;20053;-81
2023/08/05 08:34:45;;;;;;;15.00;4.95;;;;;;;27.92;76.56;100167.19;4973729;28;20089;-82
2023/08/05 08:37:10;;;;;;;13.60;5.75;;;;;;;28.00;76.90;100188.91;4973612;28;20031;-83
2023/08/05 08:39:36;;;;;;;27.13;5.05;;;;;;;27.99;76.26;100170.63;4974476;28;20103;-84
2023/08/05 08:42:02;;;;;;;22.75;4.70;;;;;;;27.92;74.02;100150.59;4974371;28;20034;-84
2023/08/05 08:44:29;;;;;;;25.83;5.88;;;;;;;28.21;74.85;100176.31;4973749;28;20049;-83
2023/08/05 08:46:56;;;;;;;13.02;4.45;;;;;;;28.29;73.26;100178.63;4973248;28;20407;-83
2023/08/05 08:49:23;;;;;;;24.23;5.63;;;;;;;28.36;72.81;100172.94;4973515;28;20026;-83
2023/08/05 08:51:50;;;;;;;11.18;4.57;;;;;;;28.30;71.41;100147.13;4988343;28;20555;-83
2023/08/05 08:54:17;;;;;;;24.13;4.80;;;;;;;28.45;71.05;100154.81;4973230;28;20525;-83
2023/08/05 08:56:42;;;;;;;20.33;4.88;;;;;;;28.55;69.03;100166.06;4973381;28;20034;-84
2023/08/05 08:59:08;;;;;;;26.23;5.40;;;;;;;28.57;69.44;100155.56;4972715;28;20033;-84
2023/08/05 09:01:41;;;;;;;18.15;4.47;;;;;;;28.59;68.86;100151.44;4973084;28;20055;-84
2023/08/05 09:04:08;;;;;;;25.65;5.47;;;;;;;28.77;68.69;100164.22;4972841;28;20023;-82
2023/08/05 09:06:36;;;;;;;19.25;4.65;;;;;;;28.82;66.79;100157.91;4972529;28;20050;-84
2023/08/05 09:09:02;;;;;;;18.52;4.55;;;;;;;28.81;66.02;100143.22;4975711;28;20093;-87
2023/08/05 09:11:28;;;;;;;22.60;4.75;;;;;;;28.97;66.00;100167.25;4975972;28;20023;-88
2023/08/05 09:13:53;;;;;;;15.10;4.68;;;;;;;29.01;67.07;100148.22;4977291;28;20027;-95
2023/08/05 09:16:19;;;;;;;13.52;4.30;;;;;;;29.00;64.92;100160.38;4991901;28;20035;-94
2023/08/05 09:18:52;;;;;;;18.98;4.22;;;;;;;29.03;64.25;100151.53;4976199;28;20478;-88
2023/08/05 09:21:26;;;;;;;23.45;4.80;;;;;;;29.04;64.60;100147.69;4973924;28;20059;-84
2023/08/05 09:23:54;;;;;;;14.23;5.00;;;;;;;29.05;65.36;100132.75;4975490;28;20026;-87
2023/08/05 09:26:27;;;;;;;24.15;5.10;;;;;;;29.22;65.18;100129.91;4973297;28;20107;-93
2023/08/05 09:28:57;;;;;;;10.43;4.57;;;;;;;29.24;63.10;100141.59;4977324;28;20169;-93
2023/08/05 09:31:23;;;;;;;15.27;5.82;;;;;;;29.15;63.44;100114.31;4990762;28;20429;-90
2023/08/05 09:33:49;;;;;;;9.88;4.50;;;;;;;29.27;62.92;100141.06;4972244;28;20038;-89
2023/08/05 09:36:15;;;;;;;23.35;5.55;;;;;;;29.28;60.38;100134.44;4974869;28;20043;-84
2023/08/05 09:38:44;;;;;;;18.45;4.72;;;;;;;28.99;60.83;100108.88;4956177;28;20125;-86
2023/08/05 09:41:13;;;;;;;13.38;3.95;;;;;;;29.10;60.85;100125.34;4973380;28;20608;-89
2023/08/05 09:43:45;;;;;;;12.02;3.85;;;;;;;29.23;61.39;100135.19;4974322;28;20067;-84
2023/08/05 09:46:14;;;;;;;14.98;5.18;;;;;;;29.11;61.04;100104.03;4972543;28;20030;-86
2023/08/05 09:48:43;;;;;;;12.95;4.05;;;;;;;29.36;60.65;100122.88;4970578;28;20038;-80
2023/08/05 09:51:15;;;;;;;9.60;3.92;;;;;;;29.33;61.35;100121.47;4970173;28;20061;-82
2023/08/05 09:53:41;;;;;;;17.52;3.78;;;;;;;29.37;60.64;100130.13;4970460;28;20055;-83
2023/08/05 09:56:09;;;;;;;50.75;5.28;;;;;;;29.42;60.07;100106.06;4971655;28;20061;-81
2023/08/05 09:58:37;;;;;;;15.90;4.38;;;;;;;29.58;61.15;100118.16;4972953;28;20066;-80
2023/08/05 10:01:08;;;;;;;10.93;4.55;;;;;;;29.59;59.92;100117.91;4969734;28;20054;-82
2023/08/05 10:03:37;;;;;;;8.70;3.53;;;;;;;29.58;58.74;100121.78;4969336;28;20026;-82
2023/08/05 10:06:08;;;;;;;12.77;3.85;;;;;;;29.69;59.21;100112.44;4971680;28;20039;-82
2023/08/05 10:08:39;;;;;;;15.82;4.30;;;;;;;29.64;59.79;100092.16;4971772;28;20026;-82
2023/08/05 10:11:06;;;;;;;14.67;4.30;;;;;;;29.77;58.84;100105.59;4971758;28;20399;-82
2023/08/05 10:13:39;;;;;;;8.80;3.40;;;;;;;29.67;59.26;100088.84;4990012;28;20391;-82
2023/08/05 10:16:07;;;;;;;8.85;3.67;;;;;;;29.80;58.74;100107.84;4972341;28;20121;-81
2023/08/05 10:18:34;;;;;;;12.68;4.68;;;;;;;29.84;59.30;100099.88;4971832;28;20030;-83
2023/08/05 10:21:04;;;;;;;14.60;3.97;;;;;;;29.98;59.11;100109.41;4971555;28;20046;-83
2023/08/05 10:23:34;;;;;;;22.35;4.32;;;;;;;30.05;57.74;100116.44;4986374;28;20050;-80
2023/08/05 10:26:01;;;;;;;15.38;4.70;;;;;;;30.18;57.21;100115.97;4971269;28;20035;-80
2023/08/05 10:28:26;;;;;;;45.00;5.03;;;;;;;30.32;57.22;100110.81;4970954;28;20117;-80
2023/08/05 10:30:54;;;;;;;12.48;3.13;;;;;;;30.40;56.54;100101.16;4971626;28;20158;-86
2023/08/05 10:33:21;;;;;;;33.78;6.47;;;;;;;30.41;55.48;100097.28;4973787;28;20045;-88
2023/08/05 10:35:49;;;;;;;16.45;3.97;;;;;;;30.53;55.24;100075.72;4976302;28;20042;-86
2023/08/05 10:38:22;;;;;;;9.02;3.53;;;;;;;30.60;55.92;100084.66;4972636;28;20077;-92
2023/08/05 10:40:55;;;;;;;13.68;4.47;;;;;;;30.77;55.21;100099.16;4975083;28;20038;-91
2023/08/05 10:43:30;;;;;;;13.60;3.75;;;;;;;30.80;54.89;100093.06;4972550;28;20042;-80
2023/08/05 10:45:59;;;;;;;15.98;4.80;;;;;;;30.77;54.65;100088.91;4970986;28;20066;-79
2023/08/05 10:48:48;;;;;;;9.43;3.78;;;;;;;30.86;54.99;100083.66;4971340;28;20039;-79
2023/08/05 10:51:24;;;;;;;13.93;3.88;;;;;;;30.92;53.03;100090.91;4971790;28;20035;-78
2023/08/05 10:53:56;;;;;;;11.50;3.88;;;;;;;30.97;53.32;100079.88;4970860;28;20085;-81
2023/08/05 10:56:30;;;;;;;11.93;4.18;;;;;;;31.05;52.21;100073.78;4971030;28;20487;-79
2023/08/05 10:58:59;;;;;;;11.20;3.15;;;;;;;31.22;52.80;100085.50;4970649;28;20031;-81
2023/08/05 11:01:51;;;;;;;12.27;3.67;;;;;;;31.29;53.57;100080.53;4970740;28;20057;-79
2023/08/05 11:04:31;;;;;;;13.23;3.75;;;;;;;31.28;54.70;100089.97;4970719;28;20026;-82
2023/08/05 11:06:59;;;;;;;16.35;4.25;;;;;;;31.08;54.23;100064.91;4970967;28;20030;-80
2023/08/05 11:09:25;;;;;;;9.30;3.53;;;;;;;31.23;54.74;100083.56;4970266;28;20031;-81